Latest Weather Observations for Perisher Valley

IDN60901

Issued at 10:21 pm EST Saturday 25 April 2015 (issued every 10 minutes, with the page automatically refreshed every 10 minutes)

About weather observations | Map of Canberra area stations | Latest observations for Canberra area | Other Formats
Station Details ID: 071075 Name: PERISHER VALLEY AWS Lat: -36.41 Lon: 148.41 Height: 1738.0 m
Data from the previous 72 hours. | See also: Recent months at Perisher Valley
Date/Time
EST
Tmp

°C
App
Tmp
°C
Dew
Point
°C
Rel
Hum
%
Delta-T

°C
Wind Press
QNH
hPa
Press
MSL
hPa
Rain
since
9 am
mm
Dir
 
Spd
km/h
Gust
km/h
Spd
kts
Gust
kts
25/10:00pm 1.0 -1.7 0.3 95 0.3 SSW 4 7 2 4 - - 8.8
25/09:30pm 0.8 -2.3 0.1 95 0.3 SW 6 9 3 5 - - 8.8
25/09:00pm 0.4 -2.4 -0.5 94 0.4 WSW 4 7 2 4 - - 8.8
25/08:30pm 0.4 -1.7 -0.6 93 0.4 CALM 0 4 0 2 - - 8.8
25/08:00pm 1.0 -1.4 0.0 93 0.4 WSW 2 6 1 3 - - 8.8
25/07:30pm 1.6 -1.1 0.1 90 0.6 WSW 4 6 2 3 - - 8.8
25/07:00pm 1.6 -1.1 0.1 90 0.6 WSW 4 9 2 5 - - 8.8
25/06:30pm 1.7 -1.3 0.5 92 0.5 WSW 6 11 3 6 - - 8.8
25/06:00pm 1.7 -0.6 0.2 90 0.6 WSW 2 6 1 3 - - 8.8
25/05:30pm 2.8 -0.4 0.7 86 0.9 WSW 7 13 4 7 - - 8.8
25/05:00pm 2.8 0.7 1.5 91 0.6 E 2 6 1 3 - - 8.8
25/04:30pm 3.1 0.0 1.3 88 0.8 WSW 7 15 4 8 - - 8.8
25/04:00pm 3.1 -0.7 1.9 92 0.5 WSW 11 20 6 11 - - 8.8
25/03:30pm 3.5 0.1 1.7 88 0.8 WSW 9 20 5 11 - - 8.8
25/03:00pm 2.9 0.8 2.0 94 0.4 ESE 2 6 1 3 - - 8.8
25/02:30pm 2.8 -0.2 1.8 93 0.4 NE 7 13 4 7 - - 8.2
25/02:00pm 2.1 -0.1 1.2 94 0.4 NE 2 4 1 2 - - 8.2
25/01:30pm 2.0 -2.4 0.5 90 0.6 NNE 13 24 7 13 - - 7.4
25/01:00pm 3.8 1.0 1.8 87 0.9 NE 6 11 3 6 - - 6.8
25/12:30pm 2.8 -0.3 1.2 89 0.7 NNE 7 20 4 11 - - 6.6
25/12:00pm 2.3 -0.7 1.1 92 0.5 W 6 15 3 8 - - 6.6
25/11:30am 1.6 -1.4 0.6 93 0.4 W 6 11 3 6 - - 6.2
25/11:00am 1.6 -3.2 0.1 90 0.6 W 15 22 8 12 - - 3.8
25/10:30am 4.6 1.8 2.9 89 0.8 WNW 7 32 4 17 - - 1.8
25/10:00am 3.9 1.2 2.4 90 0.7 NW 6 11 3 6 - - 1.8
25/09:30am 3.3 0.3 2.0 91 0.6 W 7 24 4 13 - - 1.0
25/09:00am 3.8 0.8 2.0 88 0.8 WNW 7 22 4 12 - - 7.6
25/08:30am 4.5 0.6 1.4 80 1.4 WSW 11 22 6 12 - - 7.6
25/08:00am 3.7 1.2 1.4 85 1.0 WSW 4 11 2 6 - - 7.6
25/07:30am 2.1 0.3 1.5 96 0.3 CALM 0 2 0 1 - - 7.6
25/07:00am 0.4 -2.0 -0.3 95 0.3 SW 2 2 1 1 - - 7.6
25/06:30am 0.0 -2.9 -0.8 94 0.3 SW 4 4 2 2 - - 7.6
25/06:00am 0.4 -1.7 -0.7 92 0.5 CALM 0 2 0 1 - - 7.6
25/05:30am 1.4 -1.4 -0.1 90 0.6 W 4 7 2 4 - - 7.6
25/05:00am 1.6 -1.1 0.3 91 0.5 SW 4 6 2 3 - - 7.6
25/04:30am 3.3 0.8 1.7 89 0.7 W 4 7 2 4 - - 7.6
25/04:00am 3.8 1.1 2.8 93 0.5 W 6 13 3 7 - - 7.6
25/03:30am 4.0 1.3 2.7 91 0.6 W 6 17 3 9 - - 7.6
25/03:00am 4.1 1.5 3.1 93 0.5 W 6 22 3 12 - - 7.6
25/02:30am 4.1 0.5 2.8 91 0.6 W 11 22 6 12 - - 7.6
25/02:00am 3.8 -0.3 2.2 89 0.7 WNW 13 28 7 15 - - 7.6
25/01:30am 3.9 -2.0 1.9 87 0.9 W 22 43 12 23 - - 7.6
25/01:00am 4.0 -1.2 2.5 90 0.7 W 19 35 10 19 - - 7.6
25/12:30am 4.2 -1.9 2.7 90 0.7 WNW 24 41 13 22 - - 7.6
25/12:00am 4.3 -0.1 2.7 89 0.7 W 15 30 8 16 - - 7.6
 
Date/Time
EST
Tmp

°C
App
Tmp
°C
Dew
Point
°C
Rel
Hum
%
Delta-T

°C
Wind Press
QNH
hPa
Press
MSL
hPa
Rain
since
9 am
mm
Dir
 
Spd
km/h
Gust
km/h
Spd
kts
Gust
kts
24/11:30pm 4.7 0.0 2.9 88 0.8 W 17 39 9 21 - - 7.6
24/11:00pm 4.9 -0.7 3.2 89 0.8 W 22 41 12 22 - - 7.6
24/10:30pm 4.9 0.8 4.2 95 0.3 W 15 32 8 17 - - 7.6
24/10:00pm 5.2 0.6 3.9 91 0.6 W 17 35 9 19 - - 7.6
24/09:30pm 5.3 1.5 4.1 92 0.6 W 13 33 7 18 - - 7.6
24/09:00pm 5.2 3.1 4.0 92 0.6 NNW 4 11 2 6 - - 7.6
24/08:30pm 5.4 3.0 4.2 92 0.6 W 6 20 3 11 - - 7.6
24/08:00pm 5.4 2.9 4.7 95 0.3 WNW 7 19 4 10 - - 7.6
24/07:30pm 5.3 2.7 4.1 92 0.6 N 7 24 4 13 - - 7.6
24/07:00pm 5.3 2.9 4.3 93 0.5 E 6 13 3 7 - - 7.6
24/06:30pm 5.4 2.8 4.1 91 0.6 WSW 7 30 4 16 - - 7.6
24/06:00pm 5.7 0.8 4.0 89 0.8 WNW 19 46 10 25 - - 7.6
24/05:30pm 5.7 -0.9 4.3 91 0.7 WNW 28 54 15 29 - - 7.6
24/05:02pm 5.6 -0.8 5.2 97 0.2 W 28 52 15 28 - - 7.4
24/05:00pm 5.6 0.0 5.2 97 0.2 W 24 46 13 25 - - 7.4
24/04:30pm 6.1 0.8 5.1 93 0.5 W 22 46 12 25 - - 7.4
24/04:12pm 5.7 -0.7 5.0 95 0.3 W 28 57 15 31 - - 7.4
24/04:00pm 5.7 0.0 5.0 95 0.3 W 24 48 13 26 - - 7.4
24/03:30pm 5.9 1.1 4.9 93 0.5 WNW 19 43 10 23 - - 7.4
24/03:00pm 6.0 -0.9 4.6 91 0.7 WNW 30 52 16 28 - - 7.4
24/02:56pm 6.0 -0.5 4.5 90 0.7 WNW 28 50 15 27 - - 7.4
24/02:30pm 6.0 1.3 5.3 95 0.3 WNW 19 50 10 27 - - 7.4
24/02:00pm 6.1 2.6 5.4 95 0.3 WNW 13 41 7 22 - - 7.4
24/01:30pm 6.8 2.3 5.9 94 0.4 WNW 19 35 10 19 - - 6.4
24/01:00pm 7.4 3.4 6.8 96 0.3 WNW 17 30 9 16 - - 5.6
24/12:30pm 7.3 2.8 7.0 98 0.2 WNW 20 39 11 21 - - 4.8
24/12:00pm 7.2 2.9 6.9 98 0.2 W 19 32 10 17 - - 4.2
24/11:30am 7.5 2.6 6.8 95 0.4 WNW 22 44 12 24 - - 3.4
24/11:00am 8.1 4.6 7.0 93 0.6 W 15 26 8 14 - - 2.2
24/10:30am 8.4 5.3 7.3 93 0.6 W 13 33 7 18 - - 1.0
24/10:00am 7.8 3.6 7.4 97 0.2 W 19 43 10 23 - - 0.0
24/09:30am 7.8 3.0 7.2 96 0.3 W 22 41 12 22 - - 0.0
24/09:00am 8.2 4.7 7.4 95 0.4 W 15 32 8 17 - - 10.4
24/08:30am 7.7 3.9 7.4 98 0.2 WSW 17 30 9 16 - - 10.4
24/08:00am 7.7 4.6 7.3 97 0.2 W 13 28 7 15 - - 10.4
24/07:30am 7.8 2.6 7.4 97 0.2 W 24 43 13 23 - - 10.4
24/07:09am 8.0 2.0 7.2 95 0.4 W 28 46 15 25 - - 10.4
24/07:00am 7.9 2.7 7.1 95 0.4 W 24 43 13 23 - - 10.4
24/06:30am 8.0 4.9 7.1 94 0.5 WSW 13 30 7 16 - - 10.2
24/06:00am 8.2 4.0 7.3 94 0.5 W 19 37 10 20 - - 10.0
24/05:30am 8.1 3.3 7.5 96 0.3 W 22 35 12 19 - - 9.8
24/05:00am 8.2 2.6 7.3 94 0.5 W 26 41 14 22 - - 9.8
24/04:30am 7.9 3.5 7.5 97 0.2 W 20 30 11 16 - - 9.6
24/04:00am 7.9 4.0 7.3 96 0.3 W 17 33 9 18 - - 9.6
24/03:30am 7.8 3.3 7.1 95 0.4 W 20 33 11 18 - - 9.6
24/03:00am 7.7 1.6 6.8 94 0.5 W 28 41 15 22 - - 9.4
24/02:30am 7.6 3.1 6.1 90 0.8 W 19 30 10 16 - - 9.4
24/02:00am 7.4 3.5 5.4 87 1.0 WSW 15 32 8 17 - - 9.4
24/01:30am 5.5 4.0 5.1 97 0.2 SE 2 9 1 5 - - 9.4
24/01:00am 3.6 2.1 3.2 97 0.2 CALM 0 2 0 1 - - 9.4
24/12:30am 3.3 1.4 2.7 96 0.3 SW 2 4 1 2 - - 9.4
24/12:00am 3.4 1.4 2.5 94 0.4 WSW 2 4 1 2 - - 9.4
 
Date/Time
EST
Tmp

°C
App
Tmp
°C
Dew
Point
°C
Rel
Hum
%
Delta-T

°C
Wind Press
QNH
hPa
Press
MSL
hPa
Rain
since
9 am
mm
Dir
 
Spd
km/h
Gust
km/h
Spd
kts
Gust
kts
23/11:30pm 4.0 2.5 3.1 94 0.4 CALM 0 2 0 1 - - 9.4
23/11:00pm 4.8 3.1 4.2 96 0.3 SW 2 4 1 2 - - 9.4
23/10:30pm 5.3 3.7 4.7 96 0.3 WSW 2 4 1 2 - - 9.4
23/10:00pm 5.8 4.7 4.9 94 0.4 CALM 0 2 0 1 - - 9.4
23/09:30pm 6.7 5.4 6.0 95 0.3 N 2 4 1 2 - - 9.4
23/09:00pm 6.8 5.9 6.1 95 0.4 CALM 0 2 0 1 - - 9.4
23/08:30pm 7.2 6.0 6.6 96 0.3 N 2 4 1 2 - - 9.4
23/08:00pm 7.5 5.5 7.1 97 0.2 ENE 7 11 4 6 - - 9.4
23/07:30pm 7.8 7.2 7.4 97 0.2 CALM 0 4 0 2 - - 9.4
23/07:00pm 7.8 6.4 7.4 97 0.2 NE 4 9 2 5 - - 9.0
23/06:30pm 8.1 6.2 7.7 97 0.2 NE 7 9 4 5 - - 8.4
23/06:00pm 8.5 6.9 8.1 97 0.2 S 6 15 3 8 - - 7.4
23/05:30pm 8.7 7.2 8.3 97 0.2 SSW 6 11 3 6 - - 6.8
23/05:00pm 8.8 7.6 8.2 96 0.3 S 4 13 2 7 - - 6.6
23/04:30pm 9.0 8.3 8.4 96 0.3 W 2 9 1 5 - - 6.6
23/04:00pm 9.2 8.1 8.6 96 0.3 SE 4 9 2 5 - - 6.4
23/03:30pm 9.4 8.0 8.8 96 0.3 ESE 6 15 3 8 - - 6.0
23/03:00pm 9.7 8.4 9.1 96 0.3 ESE 6 11 3 6 - - 6.0
23/02:30pm 10.0 8.6 9.5 97 0.3 ESE 7 17 4 9 - - 6.0
23/02:00pm 10.0 7.8 9.5 97 0.3 ESE 11 19 6 10 - - 6.0
23/01:30pm 10.0 8.6 9.7 98 0.2 ESE 7 19 4 10 - - 5.8
23/01:00pm 9.4 7.5 8.9 97 0.3 ESE 9 20 5 11 - - 5.0
23/12:30pm 9.6 7.4 9.3 98 0.2 E 11 22 6 12 - - 3.8
23/12:00pm 9.2 7.3 8.9 98 0.2 SE 9 32 5 17 - - 3.4
23/11:30am 9.5 7.3 9.2 98 0.2 E 11 22 6 12 - - 3.2
23/11:00am 8.9 6.5 8.6 98 0.2 E 11 26 6 14 - - 2.4
23/10:30am 8.7 7.2 8.4 98 0.2 ESE 6 19 3 10 - - 1.8
23/10:00am 8.4 6.6 8.1 98 0.2 SSE 7 24 4 13 - - 1.2
23/09:30am 8.5 6.8 8.2 98 0.2 E 7 26 4 14 - - 1.0
23/09:00am 8.3 6.6 8.2 99 0.1 SE 7 20 4 11 - - 20.4
23/08:30am 8.1 5.9 8.0 99 0.1 ESE 9 24 5 13 - - 19.8
23/08:00am 8.0 6.2 7.9 99 0.1 ESE 7 20 4 11 - - 19.4
23/07:30am 8.0 6.4 7.9 99 0.1 E 6 17 3 9 - - 18.6
23/07:00am 7.8 5.9 7.7 99 0.1 E 7 20 4 11 - - 17.8
23/06:30am 7.7 5.4 7.6 99 0.1 ESE 9 24 5 13 - - 17.0
23/06:00am 7.7 5.4 7.6 99 0.1 ESE 9 20 5 11 - - 16.6
23/05:30am 7.8 5.2 7.7 99 0.1 E 11 24 6 13 - - 16.2
23/05:00am 7.9 5.7 7.8 99 0.1 SE 9 28 5 15 - - 16.0
23/04:30am 7.6 5.7 7.5 99 0.1 SSE 7 22 4 12 - - 15.6
23/04:00am 7.8 5.9 7.7 99 0.1 SSW 7 24 4 13 - - 15.4
23/03:30am 7.5 5.8 7.4 99 0.1 SW 6 24 3 13 - - 14.8
23/03:00am 7.3 4.9 7.2 99 0.1 SSW 9 24 5 13 - - 14.2
23/02:30am 7.3 4.9 7.2 99 0.1 SSW 9 20 5 11 - - 13.2
23/02:00am 7.1 3.9 7.0 99 0.1 SSW 13 30 7 16 - - 11.2
23/01:30am 7.1 4.3 7.0 99 0.1 SW 11 30 6 16 - - 10.6
23/01:00am 7.0 3.8 6.9 99 0.1 SSW 13 37 7 20 - - 10.2
23/12:30am 6.9 3.3 6.8 99 0.1 SSW 15 30 8 16 - - 9.4
23/12:00am 6.8 4.3 6.7 99 0.1 SSW 9 20 5 11 - - 8.6
 
Date/Time
EST
Tmp

°C
App
Tmp
°C
Dew
Point
°C
Rel
Hum
%
Delta-T

°C
Wind Press
QNH
hPa
Press
MSL
hPa
Rain
since
9 am
mm
Dir
 
Spd
km/h
Gust
km/h
Spd
kts
Gust
kts
22/11:30pm 6.9 4.1 6.8 99 0.1 SSW 11 26 6 14 - - 7.4
22/11:00pm 6.7 3.1 6.6 99 0.1 SSW 15 32 8 17 - - 7.0
22/10:30pm 6.6 3.7 6.5 99 0.1 SSW 11 30 6 16 - - 6.8

Latest Capital City Observations: Canberra | Sydney | Melbourne | Brisbane | Adelaide | Perth | Hobart | Darwin

Other Formats:

Comma delimited format used in spreadsheet applications
http://www.bom.gov.au/fwo/IDN60903/IDN60903.94915.axf

JavaScript Object Notation format (JSON) in row-major order
http://www.bom.gov.au/fwo/IDN60903/IDN60903.94915.json